• Join FlightAware (Why Join?)
  • Login
  • US Flag 
06:31AM EDT


 

Airport Tracker/Info


-or-


 

Live Flight TrackerFlight Track Log ✈ N569SC ✈ 03-May-2013 ✈ KPTK - KMSP

Flight Track Log - Related Links

Times and Time Zones

All times are in EDT time to prevent confusion due to time zone crossing. See the N569SC flight status page for this flight to view local times or setup timezone preferences in your user account.

Time Position Orientation Groundspeed Altitude Reporting Facility
EDT Latitude Longitude Course Direction KTS MPH feet Rate Location/Type
11:21AM 42.6656 -83.3983 77° East 187 215 1,800  Level Cleveland Center
11:21AM 42.6753 -83.3394 77° East 262 302 3,700 3,420 Climbing Cleveland Center
11:22AM 42.7569 -83.3261 North 326 375 7,700 3,960 Climbing Cleveland Center
11:23AM 42.8397 -83.3497 348° North 321 369 11,700 3,720 Climbing Cleveland Center
11:24AM 42.9267 -83.3706 350° North 316 364 15,200 3,120 Climbing Cleveland Center
11:25AM 43.0183 -83.3689 North 316 364 17,900 2,460 Climbing Cleveland Center
11:26AM 43.1139 -83.3875 352° North 328 377 20,200 2,460 Climbing Cleveland Center
11:27AM 43.2000 -83.4483 333° Northwest 337 388 22,900 2,280 Climbing Cleveland Center
11:28AM 43.2922 -83.5125 333° Northwest 351 404 24,800 1,860 Climbing Cleveland Center
11:29AM 43.3925 -83.5772 335° Northwest 373 429 26,700 1,680 Climbing Cleveland Center
11:30AM 43.4722 -83.6356 332° Northwest 388 447 28,300 1,980 Climbing Cleveland Center
11:32AM 43.5589 -83.8878 295° West 407 468 32,000 2,100 Climbing Minneapolis Center
11:33AM 43.5958 -84.0342 289° West 407 468 33,900 1,860 Climbing Minneapolis Center
11:34AM 43.6339 -84.1822 290° West 410 472 35,900 1,740 Climbing Minneapolis Center
11:35AM 43.6617 -84.2947 289° West 400 460 37,500 1,680 Climbing Minneapolis Center
11:36AM 43.7042 -84.4631 289° West 391 450 39,400 1,200 Climbing Minneapolis Center
11:37AM 43.7364 -84.6053 287° West 390 449 40,000 240 Climbing Minneapolis Center
11:38AM 43.7642 -84.7522 285° West 394 453 40,000  Level Minneapolis Center
11:39AM 43.8003 -84.9261 286° West 395 455 40,000  Level Minneapolis Center
11:40AM 43.8278 -85.0692 285° West 390 449 40,000  Level Minneapolis Center
11:41AM 43.8564 -85.2128 285° West 389 448 40,000  Level Minneapolis Center
11:42AM 43.8853 -85.3556 286° West 388 447 40,000  Level Minneapolis Center
11:43AM 43.9125 -85.4975 285° West 386 444 40,000  Level Minneapolis Center
11:44AM 43.9403 -85.6386 285° West 383 441 40,000  Level Minneapolis Center
11:45AM 43.9722 -85.8078 285° West 381 438 40,000  Level Minneapolis Center
11:46AM 43.9994 -85.9489 285° West 381 438 40,000  Level Minneapolis Center
11:47AM 44.0267 -86.0897 285° West 380 437 40,000  Level Minneapolis Center
11:48AM 44.0519 -86.2314 284° West 379 436 40,000  Level Minneapolis Center
11:49AM 44.0744 -86.3456 285° West 382 440 40,000  Level Minneapolis Center
11:50AM 44.1053 -86.5167 284° West 383 441 40,000  Level Minneapolis Center
11:51AM 44.1369 -86.6894 284° West 385 443 40,000  Level Minneapolis Center
11:52AM 44.1608 -86.8250 284° West 385 443 40,000  Level Minneapolis Center
11:54AM 44.1872 -86.9708 284° West 387 445 40,000  Level Minneapolis Center
11:55AM 44.2133 -87.1172 284° West 388 447 40,000  Level Minneapolis Center
11:56AM 44.2394 -87.2600 284° West 388 447 40,000  Level Minneapolis Center
11:57AM 44.2694 -87.4322 284° West 390 449 40,000  Level Minneapolis Center
11:58AM 44.2956 -87.5789 284° West 391 450 40,000  Level Minneapolis Center
11:59AM 44.3194 -87.7244 283° West 387 445 40,000  Level Minneapolis Center
12:00PM 44.3414 -87.8461 284° West 388 447 40,000  Level Minneapolis Center
12:01PM 44.3747 -88.0392 284° West 385 443 40,000  Level Minneapolis Center
12:02PM 44.3986 -88.1853 283° West 386 444 40,000  Level Minneapolis Center
12:03PM 44.4233 -88.3303 283° West 384 442 40,000  Level Minneapolis Center
12:04PM 44.4467 -88.4764 283° West 384 442 40,000  Level Minneapolis Center
12:05PM 44.4703 -88.6239 283° West 389 448 40,000  Level Minneapolis Center
12:06PM 44.5033 -88.8169 284° West 386 444 40,000  Level Minneapolis Center
12:07PM 44.5264 -88.9656 282° West 387 445 40,000  Level Minneapolis Center
12:08PM 44.5489 -89.1150 282° West 391 450 40,000  Level Minneapolis Center
12:09PM 44.5739 -89.2639 283° West 391 450 40,000 -540 Level Minneapolis Center
12:10PM 44.6000 -89.4400 282° West 395 455 38,900 -1,560 Descending Minneapolis Center
12:11PM 44.6211 -89.5711 283° West 409 471 36,900 -2,700 Descending Minneapolis Center
12:12PM 44.6528 -89.7842 282° West 417 480 33,400 -2,400 Descending Minneapolis Center
12:13PM 44.6775 -89.9431 282° West 417 480 32,000 -840 Descending Minneapolis Center
12:14PM 44.6922 -90.0861 278° West 379 436 31,700 -660 Descending Minneapolis Center
12:16PM 44.6969 -90.2319 273° West 372 428 30,700 -1,140 Descending Minneapolis Center
12:17PM 44.7033 -90.3856 273° West 390 449 29,400 -840 Descending Minneapolis Center
12:18PM 44.7108 -90.5536 274° West 398 458 29,000 -240 Descending Minneapolis Center
12:19PM 44.7167 -90.7053 273° West 393 452 29,000  Level Minneapolis Center
12:20PM 44.7219 -90.8561 273° West 389 448 29,000  Level Minneapolis Center
12:21PM 44.7267 -91.0058 273° West 387 445 29,000 -300 Level Minneapolis Center
12:22PM 44.7322 -91.1864 273° West 387 445 28,500 -1,440 Descending Minneapolis Center
12:23PM 44.7397 -91.3414 274° West 392 451 26,100 -2,460 Descending Minneapolis Center
12:24PM 44.7447 -91.5000 273° West 404 465 23,500 -2,520 Descending Minneapolis Center
12:25PM 44.7503 -91.6542 273° West 402 463 21,000 -2,400 Descending Minneapolis Center
12:26PM 44.7550 -91.7964 273° West 379 436 18,700 -2,160 Descending Minneapolis Center
12:27PM 44.7833 -91.9311 287° West 369 425 16,600 -2,520 Descending Minneapolis Center
12:28PM 44.8242 -92.0917 290° West 366 421 13,600 -2,640 Descending Minneapolis Center
12:29PM 44.8578 -92.2225 290° West 358 412 11,200 -1,800 Descending Minneapolis Center
12:30PM 44.8681 -92.3433 277° West 316 364 10,000 -900 Descending Minneapolis Center
12:31PM 44.8272 -92.4425 240° Southwest 293 337 9,400 -540 Descending Minneapolis Center
12:32PM 44.7894 -92.5383 241° Southwest 283 326 8,900 -900 Descending Minneapolis Center
12:33PM 44.7547 -92.6367 244° Southwest 283 326 7,600 -1,380 Descending Minneapolis Center
12:34PM 44.7422 -92.7517 261° West 293 337 6,100 -1,020 Descending Minneapolis Center
12:35PM 44.7322 -92.8711 263° West 252 290 5,600 -720 Descending Minneapolis Center
12:36PM 44.7564 -92.9319 299° West 230 265 4,700 -780 Descending Minneapolis Center
12:37PM 44.7936 -93.0189 301° West 218 251 4,000 -840 Descending Minneapolis Center
12:38PM 44.8192 -93.0758 302° West 179 206 3,000 -840 Descending Minneapolis Center
12:39PM 44.8378 -93.1186 302° West 124 143 2,300 -780 Descending Minneapolis Center
12:40PM 44.8586 -93.1667 301° West 120 138 1,500 -780 Descending Minneapolis Center
12:42PM 44.8667 -93.2167 270° West  Level FlightAware Approximate
12:49PM 44.8820 -93.2218 270° West  Level Estimated